createdAt,value
2023-03-17T00:04:38.488Z,67.13
2023-03-17T00:09:40.770Z,67.02
2023-03-17T00:14:44.498Z,66.91
2023-03-17T00:19:46.548Z,67.19
2023-03-17T00:24:48.430Z,66.97
2023-03-17T00:29:50.085Z,67.60
2023-03-17T00:34:53.716Z,67.94
2023-03-17T00:39:56.288Z,67.94
2023-03-17T00:45:01.270Z,68.05
2023-03-17T00:50:03.125Z,68.22
2023-03-17T00:55:07.929Z,67.88
2023-03-17T01:00:26.599Z,68.38
2023-03-17T01:05:28.618Z,68.20
2023-03-17T01:10:31.268Z,68.03
2023-03-17T01:15:34.573Z,67.66
2023-03-17T01:20:36.897Z,68.45
2023-03-17T01:25:41.430Z,68.38
2023-03-17T01:30:43.787Z,68.52
2023-03-17T01:35:46.104Z,68.56
2023-03-17T01:40:50.508Z,70.52
2023-03-17T01:46:11.787Z,70.57
2023-03-17T01:51:22.312Z,69.32
2023-03-17T01:56:24.713Z,68.98
2023-03-17T02:01:30.664Z,68.94
2023-03-17T02:06:32.778Z,68.38
2023-03-17T02:11:34.979Z,69.03
2023-03-17T02:16:37.353Z,69.33
2023-03-17T02:21:45.217Z,69.09
2023-03-17T02:26:49.561Z,68.66
2023-03-17T02:31:51.678Z,68.66
2023-03-17T02:36:53.412Z,68.98
2023-03-17T02:41:55.353Z,68.84
2023-03-17T02:46:59.516Z,68.85
2023-03-17T02:52:01.604Z,69.08
2023-03-17T02:57:03.825Z,69.52
2023-03-17T03:02:05.737Z,69.63
2023-03-17T03:07:07.533Z,69.67
2023-03-17T03:12:10.098Z,70.05
2023-03-17T03:17:11.880Z,70.03
2023-03-17T03:22:13.528Z,70.07
2023-03-17T03:27:15.116Z,70.51
2023-03-17T03:32:17.080Z,70.32
2023-03-17T03:37:18.689Z,70.42
2023-03-17T03:42:20.457Z,70.40
2023-03-17T03:47:22.331Z,70.85
2023-03-17T03:52:23.957Z,70.97
2023-03-17T03:57:25.608Z,71.08
2023-03-17T04:02:27.487Z,70.98
2023-03-17T04:07:29.300Z,71.86
2023-03-17T04:12:31.418Z,71.88
2023-03-17T04:17:33.244Z,72.05
2023-03-17T04:22:34.928Z,71.76
2023-03-17T04:27:37.507Z,71.59
2023-03-17T04:32:39.935Z,71.74
2023-03-17T04:37:42.013Z,71.48
2023-03-17T04:42:43.703Z,71.27
2023-03-17T04:47:48.458Z,71.60
2023-03-17T04:52:50.102Z,71.40
2023-03-17T04:57:51.806Z,71.80
2023-03-17T05:02:53.479Z,71.40
2023-03-17T05:07:55.372Z,71.44
2023-03-17T05:12:56.929Z,71.46
2023-03-17T05:17:58.591Z,71.18
2023-03-17T05:23:00.736Z,71.40
2023-03-17T05:28:03.108Z,70.99
2023-03-17T05:33:06.066Z,70.99
2023-03-17T05:38:08.965Z,70.19
2023-03-17T05:43:11.102Z,69.38
2023-03-17T05:48:13.191Z,69.30
2023-03-17T05:53:14.939Z,69.03
2023-03-17T05:58:17.045Z,68.20
2023-03-17T06:03:18.723Z,67.64
2023-03-17T06:08:20.381Z,66.31
2023-03-17T06:13:22.391Z,65.88
2023-03-17T06:18:24.250Z,65.71
2023-03-17T06:23:25.922Z,64.08
2023-03-17T06:28:27.551Z,63.53
2023-03-17T06:33:29.478Z,62.26
2023-03-17T06:38:31.300Z,61.08
2023-03-17T06:43:33.248Z,60.54
2023-03-17T06:48:35.263Z,59.59
2023-03-17T06:53:37.227Z,59.24
2023-03-17T06:58:39.880Z,58.57
2023-03-17T07:03:41.880Z,58.54
2023-03-17T07:08:43.586Z,58.71
2023-03-17T07:13:45.431Z,59.11
2023-03-17T07:18:47.273Z,57.93
2023-03-17T07:23:48.961Z,58.04
2023-03-17T07:28:50.825Z,57.51
2023-03-17T07:33:52.826Z,57.73
2023-03-17T07:38:55.397Z,57.22
2023-03-17T07:43:57.426Z,56.28
2023-03-17T07:48:59.143Z,55.67
2023-03-17T07:54:04.575Z,55.72
2023-03-17T07:59:10.994Z,55.65
2023-03-17T08:04:13.248Z,55.24
2023-03-17T08:09:14.920Z,54.11
2023-03-17T08:14:16.700Z,54.00
2023-03-17T08:19:18.584Z,53.57
2023-03-17T08:24:20.754Z,53.74
2023-03-17T08:29:23.761Z,52.77
2023-03-17T08:34:26.272Z,52.22
2023-03-17T08:39:27.874Z,52.24
2023-03-17T08:44:29.765Z,51.57
2023-03-17T08:49:34.600Z,51.28
2023-03-17T08:54:36.757Z,51.82
2023-03-17T08:59:38.821Z,50.60
2023-03-17T09:04:41.202Z,50.29
2023-03-17T09:09:42.883Z,49.38
2023-03-17T09:14:45.247Z,48.80
2023-03-17T09:19:48.213Z,48.53
2023-03-17T09:24:49.948Z,48.79
2023-03-17T09:29:51.899Z,48.16
2023-03-17T09:34:53.627Z,48.25
2023-03-17T09:39:55.725Z,47.32
2023-03-17T09:45:16.589Z,46.48
2023-03-17T09:50:29.306Z,45.82
2023-03-17T09:55:34.218Z,45.97
2023-03-17T10:00:35.973Z,45.17
2023-03-17T10:05:38.685Z,44.28
2023-03-17T10:10:49.176Z,45.07
2023-03-17T10:15:58.281Z,44.59
2023-03-17T10:21:03.943Z,44.97
2023-03-17T10:26:16.270Z,44.13
2023-03-17T10:31:28.496Z,44.41
2023-03-17T10:36:37.637Z,43.42
2023-03-17T10:41:40.983Z,42.91
2023-03-17T10:46:54.397Z,42.94
2023-03-17T10:51:56.165Z,42.13
2023-03-17T10:57:06.190Z,42.25
2023-03-17T11:02:43.344Z,41.75
2023-03-17T11:07:45.612Z,41.26
2023-03-17T11:12:50.421Z,40.78
2023-03-17T11:17:58.841Z,39.36
2023-03-17T11:23:08.946Z,40.23
2023-03-17T11:28:19.988Z,39.31
2023-03-17T11:33:49.773Z,38.74
2023-03-17T11:39:24.154Z,39.12
2023-03-17T11:44:43.894Z,38.66
2023-03-17T11:49:53.992Z,38.57
2023-03-17T11:55:22.414Z,38.83
2023-03-17T12:00:36.812Z,39.03
2023-03-17T12:05:39.810Z,38.73
2023-03-17T12:10:50.620Z,37.78
2023-03-17T12:16:13.692Z,38.74
2023-03-17T12:21:21.250Z,37.77
2023-03-17T12:26:39.397Z,38.77
2023-03-17T12:32:05.513Z,37.83
2023-03-17T12:37:07.688Z,38.15
2023-03-17T12:42:12.027Z,38.34
2023-03-17T12:47:55.244Z,37.89
2023-03-17T12:53:26.621Z,37.93
2023-03-17T12:58:31.257Z,37.75
2023-03-17T13:03:34.195Z,37.71
2023-03-17T13:08:41.167Z,37.28
2023-03-17T13:13:55.092Z,36.90
2023-03-17T13:19:12.415Z,37.02
2023-03-17T13:24:16.968Z,36.83
2023-03-17T13:29:34.022Z,36.14
2023-03-17T13:34:53.014Z,36.25
2023-03-17T13:40:14.051Z,36.18
2023-03-17T13:45:33.996Z,35.68
2023-03-17T13:50:40.057Z,36.64
2023-03-17T13:56:02.772Z,36.09
2023-03-17T14:01:07.309Z,35.94
2023-03-17T14:06:12.829Z,35.90
2023-03-17T14:11:37.741Z,35.63
2023-03-17T14:17:07.252Z,35.67
2023-03-17T14:22:21.179Z,35.80
2023-03-17T14:27:24.676Z,34.92
2023-03-17T14:32:26.782Z,34.94
2023-03-17T14:37:28.455Z,35.25
2023-03-17T14:42:31.920Z,35.04
2023-03-17T14:47:45.498Z,35.75
2023-03-17T14:52:50.424Z,35.30
2023-03-17T14:57:52.920Z,35.22
2023-03-17T15:02:56.570Z,36.13
2023-03-17T15:07:58.428Z,35.35
2023-03-17T15:13:02.197Z,36.15
2023-03-17T15:18:10.982Z,35.92
2023-03-17T15:23:18.950Z,36.22
2023-03-17T15:28:22.528Z,36.29
2023-03-17T15:33:30.488Z,36.44
2023-03-17T15:38:33.647Z,36.69
2023-03-17T15:43:35.887Z,37.41
2023-03-17T15:48:37.712Z,37.22
2023-03-17T15:53:39.303Z,37.16
2023-03-17T15:58:41.370Z,37.91
2023-03-17T16:03:45.388Z,37.75
2023-03-17T16:08:47.883Z,38.47
2023-03-17T16:13:49.735Z,38.75
2023-03-17T16:18:52.559Z,38.48
2023-03-17T16:23:54.942Z,39.00
2023-03-17T16:28:56.904Z,39.04
2023-03-17T16:33:58.791Z,39.59
2023-03-17T16:39:01.375Z,39.70
2023-03-17T16:44:03.323Z,40.17
2023-03-17T16:49:05.610Z,40.45
2023-03-17T16:54:07.541Z,40.86
2023-03-17T16:59:21.144Z,41.29
2023-03-17T17:04:24.248Z,41.04
2023-03-17T17:09:26.064Z,41.69
2023-03-17T17:14:27.741Z,41.92
2023-03-17T17:19:29.574Z,42.22
2023-03-17T17:24:31.268Z,42.42
2023-03-17T17:29:33.131Z,42.92
2023-03-17T17:34:34.747Z,43.12
2023-03-17T17:39:36.768Z,43.34
2023-03-17T17:44:38.807Z,43.44
2023-03-17T17:49:41.343Z,44.06
2023-03-17T17:54:42.945Z,44.25
2023-03-17T17:59:44.735Z,44.36
2023-03-17T18:04:46.829Z,44.72
2023-03-17T18:09:48.503Z,44.62
2023-03-17T18:14:50.383Z,44.54
2023-03-17T18:19:55.480Z,44.84
2023-03-17T18:24:57.131Z,44.75
2023-03-17T18:29:59.072Z,45.22
2023-03-17T18:35:05.186Z,44.86
2023-03-17T18:40:15.081Z,45.14
2023-03-17T18:45:17.158Z,44.82
2023-03-17T18:50:21.841Z,45.17
2023-03-17T18:55:23.735Z,45.31
2023-03-17T19:00:26.503Z,45.76
2023-03-17T19:05:28.508Z,46.28
2023-03-17T19:10:31.439Z,46.60
2023-03-17T19:15:34.118Z,46.54
2023-03-17T19:20:36.551Z,46.74
2023-03-17T19:25:38.512Z,47.20
2023-03-17T19:30:40.350Z,47.31
2023-03-17T19:35:44.290Z,47.63
2023-03-17T19:40:46.288Z,47.91
2023-03-17T19:45:48.486Z,47.64
2023-03-17T19:50:50.550Z,47.61
2023-03-17T19:55:52.269Z,47.67
2023-03-17T20:00:54.060Z,47.06
2023-03-17T20:05:55.761Z,47.79
2023-03-17T20:10:58.069Z,47.51
2023-03-17T20:16:01.599Z,47.26
2023-03-17T20:21:05.854Z,47.20
2023-03-17T20:26:08.398Z,47.11
2023-03-17T20:31:10.341Z,47.28
2023-03-17T20:36:12.930Z,47.38
2023-03-17T20:41:17.550Z,46.91
2023-03-17T20:46:24.573Z,47.19
2023-03-17T20:51:26.686Z,47.24
2023-03-17T20:56:29.877Z,47.08
2023-03-17T21:01:36.922Z,47.48
2023-03-17T21:06:39.624Z,47.54
2023-03-17T21:11:41.674Z,47.74
2023-03-17T21:16:45.116Z,47.68
2023-03-17T21:21:46.951Z,47.75
2023-03-17T21:26:48.600Z,47.58
2023-03-17T21:31:50.652Z,48.24
2023-03-17T21:36:52.971Z,48.42
2023-03-17T21:41:55.349Z,48.27
2023-03-17T21:46:56.996Z,48.45
2023-03-17T21:51:58.696Z,48.35
2023-03-17T21:57:00.534Z,47.90
2023-03-17T22:02:02.938Z,48.11
2023-03-17T22:07:04.599Z,48.21
2023-03-17T22:12:07.176Z,48.51
2023-03-17T22:17:10.118Z,49.05
2023-03-17T22:22:11.994Z,49.45
2023-03-17T22:27:15.498Z,49.83
2023-03-17T22:32:17.303Z,50.02
2023-03-17T22:37:19.138Z,50.30
2023-03-17T22:42:21.093Z,50.46
2023-03-17T22:47:22.989Z,50.56
2023-03-17T22:52:24.630Z,50.79
2023-03-17T22:57:26.262Z,50.92
2023-03-17T23:02:27.907Z,50.68
2023-03-17T23:07:35.631Z,50.88
2023-03-17T23:12:43.916Z,51.35
2023-03-17T23:17:46.278Z,51.49
2023-03-17T23:22:48.238Z,51.48
2023-03-17T23:27:50.832Z,51.67
2023-03-17T23:32:52.676Z,51.62
2023-03-17T23:37:55.392Z,51.77
2023-03-17T23:42:57.762Z,51.91
2023-03-17T23:47:59.901Z,52.00
2023-03-17T23:53:02.524Z,51.98
2023-03-17T23:58:04.963Z,52.18
